sensor_id;sensor_type;location;lat;lon;timestamp;P1;durP1;ratioP1;P2;durP2;ratioP2
23555;SDS011;11956;53.184;8.578;2022-08-19T00:00:36;16.95;;;14.35;;
23555;SDS011;11956;53.184;8.578;2022-08-19T00:03:37;17.52;;;12.68;;
23555;SDS011;11956;53.184;8.578;2022-08-19T00:06:39;13.52;;;11.30;;
23555;SDS011;11956;53.184;8.578;2022-08-19T00:09:42;18.23;;;12.30;;
23555;SDS011;11956;53.184;8.578;2022-08-19T00:12:43;15.60;;;11.70;;
23555;SDS011;11956;53.184;8.578;2022-08-19T00:15:44;18.40;;;12.65;;
23555;SDS011;11956;53.184;8.578;2022-08-19T00:18:45;16.08;;;11.98;;
23555;SDS011;11956;53.184;8.578;2022-08-19T00:21:47;16.05;;;10.77;;
23555;SDS011;11956;53.184;8.578;2022-08-19T00:24:48;9.85;;;8.50;;
23555;SDS011;11956;53.184;8.578;2022-08-19T00:27:49;14.63;;;10.50;;
23555;SDS011;11956;53.184;8.578;2022-08-19T00:30:50;11.80;;;9.55;;
23555;SDS011;11956;53.184;8.578;2022-08-19T00:33:51;12.60;;;9.35;;
23555;SDS011;11956;53.184;8.578;2022-08-19T00:36:53;15.27;;;8.63;;
23555;SDS011;11956;53.184;8.578;2022-08-19T00:39:54;11.55;;;9.23;;
23555;SDS011;11956;53.184;8.578;2022-08-19T00:42:55;15.98;;;11.82;;
23555;SDS011;11956;53.184;8.578;2022-08-19T00:45:56;14.32;;;11.18;;
23555;SDS011;11956;53.184;8.578;2022-08-19T00:48:57;13.95;;;11.75;;
23555;SDS011;11956;53.184;8.578;2022-08-19T00:52:04;17.92;;;12.60;;
23555;SDS011;11956;53.184;8.578;2022-08-19T00:55:09;14.30;;;11.27;;
23555;SDS011;11956;53.184;8.578;2022-08-19T00:58:14;14.55;;;12.25;;
23555;SDS011;11956;53.184;8.578;2022-08-19T01:01:18;20.30;;;14.30;;
23555;SDS011;11956;53.184;8.578;2022-08-19T01:04:19;20.13;;;14.77;;
23555;SDS011;11956;53.184;8.578;2022-08-19T01:07:20;15.35;;;12.57;;
23555;SDS011;11956;53.184;8.578;2022-08-19T01:10:23;17.58;;;13.27;;
23555;SDS011;11956;53.184;8.578;2022-08-19T01:13:28;16.80;;;14.35;;
23555;SDS011;11956;53.184;8.578;2022-08-19T01:16:33;18.08;;;14.98;;
23555;SDS011;11956;53.184;8.578;2022-08-19T01:19:36;15.65;;;13.00;;
23555;SDS011;11956;53.184;8.578;2022-08-19T01:22:52;16.92;;;13.20;;
23555;SDS011;11956;53.184;8.578;2022-08-19T01:25:56;16.05;;;13.25;;
23555;SDS011;11956;53.184;8.578;2022-08-19T01:28:58;16.92;;;14.57;;
23555;SDS011;11956;53.184;8.578;2022-08-19T01:32:01;17.20;;;13.82;;
23555;SDS011;11956;53.184;8.578;2022-08-19T01:35:02;15.52;;;12.93;;
23555;SDS011;11956;53.184;8.578;2022-08-19T01:38:05;17.08;;;13.45;;
23555;SDS011;11956;53.184;8.578;2022-08-19T01:41:11;13.65;;;11.73;;
23555;SDS011;11956;53.184;8.578;2022-08-19T01:44:12;18.75;;;14.75;;
23555;SDS011;11956;53.184;8.578;2022-08-19T01:47:13;17.42;;;14.85;;
23555;SDS011;11956;53.184;8.578;2022-08-19T01:50:15;15.80;;;13.32;;
23555;SDS011;11956;53.184;8.578;2022-08-19T01:53:16;15.13;;;13.32;;
23555;SDS011;11956;53.184;8.578;2022-08-19T01:56:18;16.73;;;13.35;;
23555;SDS011;11956;53.184;8.578;2022-08-19T01:59:20;19.50;;;15.35;;
23555;SDS011;11956;53.184;8.578;2022-08-19T02:02:23;19.27;;;15.20;;
23555;SDS011;11956;53.184;8.578;2022-08-19T02:05:25;17.17;;;14.20;;
23555;SDS011;11956;53.184;8.578;2022-08-19T02:08:26;21.55;;;14.30;;
23555;SDS011;11956;53.184;8.578;2022-08-19T02:11:28;18.65;;;14.32;;
23555;SDS011;11956;53.184;8.578;2022-08-19T02:14:34;13.10;;;10.77;;
23555;SDS011;11956;53.184;8.578;2022-08-19T02:17:36;16.27;;;12.05;;
23555;SDS011;11956;53.184;8.578;2022-08-19T02:20:37;13.85;;;10.93;;
23555;SDS011;11956;53.184;8.578;2022-08-19T02:23:39;15.73;;;11.70;;
23555;SDS011;11956;53.184;8.578;2022-08-19T02:26:40;14.82;;;10.93;;
23555;SDS011;11956;53.184;8.578;2022-08-19T02:29:42;12.43;;;10.07;;
23555;SDS011;11956;53.184;8.578;2022-08-19T02:32:43;14.30;;;10.38;;
23555;SDS011;11956;53.184;8.578;2022-08-19T02:35:45;11.00;;;7.80;;
23555;SDS011;11956;53.184;8.578;2022-08-19T02:38:47;7.80;;;6.07;;
23555;SDS011;11956;53.184;8.578;2022-08-19T02:41:48;10.13;;;6.80;;
23555;SDS011;11956;53.184;8.578;2022-08-19T02:44:50;10.32;;;7.60;;
23555;SDS011;11956;53.184;8.578;2022-08-19T02:47:51;9.52;;;7.55;;
23555;SDS011;11956;53.184;8.578;2022-08-19T02:50:53;7.18;;;6.38;;
23555;SDS011;11956;53.184;8.578;2022-08-19T02:53:57;8.77;;;6.90;;
23555;SDS011;11956;53.184;8.578;2022-08-19T02:56:58;6.93;;;6.00;;
23555;SDS011;11956;53.184;8.578;2022-08-19T03:00:00;9.80;;;8.57;;
23555;SDS011;11956;53.184;8.578;2022-08-19T03:03:01;11.30;;;9.30;;
23555;SDS011;11956;53.184;8.578;2022-08-19T03:06:11;13.10;;;9.77;;
23555;SDS011;11956;53.184;8.578;2022-08-19T03:09:14;11.77;;;10.23;;
23555;SDS011;11956;53.184;8.578;2022-08-19T03:12:17;15.15;;;11.60;;
23555;SDS011;11956;53.184;8.578;2022-08-19T03:15:18;15.75;;;12.90;;
23555;SDS011;11956;53.184;8.578;2022-08-19T03:18:19;16.60;;;13.00;;
23555;SDS011;11956;53.184;8.578;2022-08-19T03:21:21;17.67;;;12.95;;
23555;SDS011;11956;53.184;8.578;2022-08-19T03:24:25;17.30;;;14.10;;
23555;SDS011;11956;53.184;8.578;2022-08-19T03:27:26;18.92;;;14.77;;
23555;SDS011;11956;53.184;8.578;2022-08-19T03:30:27;21.67;;;16.55;;
23555;SDS011;11956;53.184;8.578;2022-08-19T03:33:29;23.30;;;17.67;;
23555;SDS011;11956;53.184;8.578;2022-08-19T03:36:31;23.75;;;18.33;;
23555;SDS011;11956;53.184;8.578;2022-08-19T03:39:32;23.77;;;18.25;;
23555;SDS011;11956;53.184;8.578;2022-08-19T03:42:33;23.83;;;18.75;;
23555;SDS011;11956;53.184;8.578;2022-08-19T03:45:34;26.33;;;19.02;;
23555;SDS011;11956;53.184;8.578;2022-08-19T03:48:36;22.00;;;17.75;;
23555;SDS011;11956;53.184;8.578;2022-08-19T03:51:38;27.00;;;19.33;;
23555;SDS011;11956;53.184;8.578;2022-08-19T03:54:39;28.27;;;20.33;;
23555;SDS011;11956;53.184;8.578;2022-08-19T03:57:40;26.88;;;19.88;;
23555;SDS011;11956;53.184;8.578;2022-08-19T04:00:42;29.02;;;20.50;;
23555;SDS011;11956;53.184;8.578;2022-08-19T04:03:43;23.05;;;18.30;;
23555;SDS011;11956;53.184;8.578;2022-08-19T04:06:48;31.55;;;21.95;;
23555;SDS011;11956;53.184;8.578;2022-08-19T04:09:50;32.30;;;22.73;;
23555;SDS011;11956;53.184;8.578;2022-08-19T04:12:52;31.80;;;21.42;;
23555;SDS011;11956;53.184;8.578;2022-08-19T04:15:52;34.15;;;22.75;;
23555;SDS011;11956;53.184;8.578;2022-08-19T04:18:54;31.67;;;22.13;;
23555;SDS011;11956;53.184;8.578;2022-08-19T04:22:01;29.58;;;21.25;;
23555;SDS011;11956;53.184;8.578;2022-08-19T04:25:03;30.15;;;21.92;;
23555;SDS011;11956;53.184;8.578;2022-08-19T04:28:04;30.02;;;22.02;;
23555;SDS011;11956;53.184;8.578;2022-08-19T04:31:05;30.85;;;23.15;;
23555;SDS011;11956;53.184;8.578;2022-08-19T04:34:09;35.03;;;24.40;;
23555;SDS011;11956;53.184;8.578;2022-08-19T04:37:11;33.08;;;24.15;;
23555;SDS011;11956;53.184;8.578;2022-08-19T04:40:12;32.25;;;24.17;;
23555;SDS011;11956;53.184;8.578;2022-08-19T04:43:33;32.00;;;23.70;;
23555;SDS011;11956;53.184;8.578;2022-08-19T04:46:36;30.02;;;22.95;;
23555;SDS011;11956;53.184;8.578;2022-08-19T04:49:37;27.05;;;21.45;;
23555;SDS011;11956;53.184;8.578;2022-08-19T04:52:38;28.38;;;22.33;;
23555;SDS011;11956;53.184;8.578;2022-08-19T04:55:43;29.60;;;22.23;;
23555;SDS011;11956;53.184;8.578;2022-08-19T04:58:44;24.98;;;19.65;;
23555;SDS011;11956;53.184;8.578;2022-08-19T05:01:45;23.15;;;18.55;;
23555;SDS011;11956;53.184;8.578;2022-08-19T05:04:49;24.17;;;17.42;;
23555;SDS011;11956;53.184;8.578;2022-08-19T05:08:00;23.27;;;16.88;;
23555;SDS011;11956;53.184;8.578;2022-08-19T05:11:06;18.73;;;15.88;;
23555;SDS011;11956;53.184;8.578;2022-08-19T05:14:15;21.30;;;16.52;;
23555;SDS011;11956;53.184;8.578;2022-08-19T05:17:16;21.98;;;16.48;;
23555;SDS011;11956;53.184;8.578;2022-08-19T05:20:17;21.15;;;16.65;;
23555;SDS011;11956;53.184;8.578;2022-08-19T05:23:37;23.48;;;18.00;;
23555;SDS011;11956;53.184;8.578;2022-08-19T05:26:39;21.50;;;17.23;;
23555;SDS011;11956;53.184;8.578;2022-08-19T05:29:43;20.38;;;16.90;;
23555;SDS011;11956;53.184;8.578;2022-08-19T05:32:44;18.58;;;16.50;;
23555;SDS011;11956;53.184;8.578;2022-08-19T05:35:45;17.30;;;15.00;;
23555;SDS011;11956;53.184;8.578;2022-08-19T05:38:48;19.80;;;15.30;;
23555;SDS011;11956;53.184;8.578;2022-08-19T05:41:52;18.85;;;16.33;;
23555;SDS011;11956;53.184;8.578;2022-08-19T05:44:57;18.92;;;15.55;;
23555;SDS011;11956;53.184;8.578;2022-08-19T05:47:58;20.38;;;16.42;;
23555;SDS011;11956;53.184;8.578;2022-08-19T05:51:03;22.90;;;17.10;;
23555;SDS011;11956;53.184;8.578;2022-08-19T05:54:06;21.65;;;17.27;;
23555;SDS011;11956;53.184;8.578;2022-08-19T05:57:09;22.92;;;15.45;;
23555;SDS011;11956;53.184;8.578;2022-08-19T06:00:10;17.63;;;15.70;;
23555;SDS011;11956;53.184;8.578;2022-08-19T06:03:12;17.63;;;14.88;;
23555;SDS011;11956;53.184;8.578;2022-08-19T06:06:14;13.88;;;12.32;;
23555;SDS011;11956;53.184;8.578;2022-08-19T06:09:16;12.17;;;10.97;;
23555;SDS011;11956;53.184;8.578;2022-08-19T06:12:17;11.23;;;9.98;;
23555;SDS011;11956;53.184;8.578;2022-08-19T06:15:18;11.43;;;10.32;;
23555;SDS011;11956;53.184;8.578;2022-08-19T06:18:20;14.85;;;10.60;;
23555;SDS011;11956;53.184;8.578;2022-08-19T06:21:21;9.52;;;8.52;;
23555;SDS011;11956;53.184;8.578;2022-08-19T06:24:25;10.05;;;9.15;;
23555;SDS011;11956;53.184;8.578;2022-08-19T06:27:28;8.52;;;7.63;;
23555;SDS011;11956;53.184;8.578;2022-08-19T06:30:30;9.90;;;7.43;;
23555;SDS011;11956;53.184;8.578;2022-08-19T06:33:32;7.80;;;6.82;;
23555;SDS011;11956;53.184;8.578;2022-08-19T06:36:35;8.13;;;6.38;;
23555;SDS011;11956;53.184;8.578;2022-08-19T06:39:41;6.88;;;6.18;;
23555;SDS011;11956;53.184;8.578;2022-08-19T06:42:44;8.45;;;6.20;;
23555;SDS011;11956;53.184;8.578;2022-08-19T06:45:45;6.88;;;5.30;;
23555;SDS011;11956;53.184;8.578;2022-08-19T06:48:46;17.77;;;13.48;;
23555;SDS011;11956;53.184;8.578;2022-08-19T06:51:48;4.63;;;3.65;;
23555;SDS011;11956;53.184;8.578;2022-08-19T06:54:50;7.20;;;3.70;;
23555;SDS011;11956;53.184;8.578;2022-08-19T06:57:51;5.57;;;3.20;;
23555;SDS011;11956;53.184;8.578;2022-08-19T07:00:53;5.10;;;3.20;;
23555;SDS011;11956;53.184;8.578;2022-08-19T07:03:54;4.85;;;2.67;;
23555;SDS011;11956;53.184;8.578;2022-08-19T07:07:03;7.60;;;2.60;;
23555;SDS011;11956;53.184;8.578;2022-08-19T07:10:11;4.75;;;2.92;;
23555;SDS011;11956;53.184;8.578;2022-08-19T07:13:13;3.88;;;2.50;;
23555;SDS011;11956;53.184;8.578;2022-08-19T07:16:16;3.65;;;2.30;;
23555;SDS011;11956;53.184;8.578;2022-08-19T07:19:19;3.97;;;2.60;;
23555;SDS011;11956;53.184;8.578;2022-08-19T07:22:22;6.40;;;2.67;;
23555;SDS011;11956;53.184;8.578;2022-08-19T07:25:23;4.03;;;3.20;;
23555;SDS011;11956;53.184;8.578;2022-08-19T07:28:23;4.68;;;2.38;;
23555;SDS011;11956;53.184;8.578;2022-08-19T07:31:25;3.00;;;1.95;;
23555;SDS011;11956;53.184;8.578;2022-08-19T07:34:29;4.28;;;1.90;;
23555;SDS011;11956;53.184;8.578;2022-08-19T07:37:31;2.35;;;1.50;;
23555;SDS011;11956;53.184;8.578;2022-08-19T07:40:32;2.38;;;1.67;;
23555;SDS011;11956;53.184;8.578;2022-08-19T07:43:32;3.60;;;2.15;;
23555;SDS011;11956;53.184;8.578;2022-08-19T07:46:34;3.97;;;1.70;;
23555;SDS011;11956;53.184;8.578;2022-08-19T07:49:39;3.13;;;1.40;;
23555;SDS011;11956;53.184;8.578;2022-08-19T07:52:40;1.95;;;1.00;;
23555;SDS011;11956;53.184;8.578;2022-08-19T07:55:44;2.53;;;1.40;;
23555;SDS011;11956;53.184;8.578;2022-08-19T07:58:46;3.42;;;1.60;;
23555;SDS011;11956;53.184;8.578;2022-08-19T08:01:49;3.10;;;1.30;;
23555;SDS011;11956;53.184;8.578;2022-08-19T08:04:50;1.53;;;0.90;;
23555;SDS011;11956;53.184;8.578;2022-08-19T08:08:10;2.22;;;1.15;;
23555;SDS011;11956;53.184;8.578;2022-08-19T08:11:30;1.92;;;1.10;;
23555;SDS011;11956;53.184;8.578;2022-08-19T08:14:36;5.78;;;1.00;;
23555;SDS011;11956;53.184;8.578;2022-08-19T08:17:47;2.40;;;0.90;;
23555;SDS011;11956;53.184;8.578;2022-08-19T08:20:48;1.85;;;1.23;;
23555;SDS011;11956;53.184;8.578;2022-08-19T08:23:49;2.45;;;0.85;;
23555;SDS011;11956;53.184;8.578;2022-08-19T08:26:52;1.98;;;0.70;;
23555;SDS011;11956;53.184;8.578;2022-08-19T08:29:53;3.50;;;1.05;;
23555;SDS011;11956;53.184;8.578;2022-08-19T08:32:54;2.30;;;0.80;;
23555;SDS011;11956;53.184;8.578;2022-08-19T08:35:55;2.47;;;0.90;;
23555;SDS011;11956;53.184;8.578;2022-08-19T08:38:56;2.03;;;0.90;;
23555;SDS011;11956;53.184;8.578;2022-08-19T08:45:26;3.22;;;1.20;;
23555;SDS011;11956;53.184;8.578;2022-08-19T08:52:33;1.88;;;1.15;;
23555;SDS011;11956;53.184;8.578;2022-08-19T08:55:27;2.55;;;0.93;;
23555;SDS011;11956;53.184;8.578;2022-08-19T08:58:44;1.98;;;0.88;;
23555;SDS011;11956;53.184;8.578;2022-08-19T09:01:59;1.50;;;0.90;;
23555;SDS011;11956;53.184;8.578;2022-08-19T09:05:00;4.20;;;1.30;;
23555;SDS011;11956;53.184;8.578;2022-08-19T09:08:08;3.67;;;1.50;;
23555;SDS011;11956;53.184;8.578;2022-08-19T09:11:41;5.70;;;1.27;;
23555;SDS011;11956;53.184;8.578;2022-08-19T09:15:05;2.33;;;1.30;;
23555;SDS011;11956;53.184;8.578;2022-08-19T09:18:09;2.53;;;1.20;;
23555;SDS011;11956;53.184;8.578;2022-08-19T09:21:11;1.33;;;0.80;;
23555;SDS011;11956;53.184;8.578;2022-08-19T09:24:13;3.00;;;0.90;;
23555;SDS011;11956;53.184;8.578;2022-08-19T09:27:14;2.35;;;1.05;;
23555;SDS011;11956;53.184;8.578;2022-08-19T09:30:17;1.83;;;1.00;;
23555;SDS011;11956;53.184;8.578;2022-08-19T09:33:23;1.50;;;0.70;;
23555;SDS011;11956;53.184;8.578;2022-08-19T09:36:25;2.28;;;0.93;;
23555;SDS011;11956;53.184;8.578;2022-08-19T09:39:29;2.75;;;1.02;;
23555;SDS011;11956;53.184;8.578;2022-08-19T09:42:30;1.95;;;0.80;;
23555;SDS011;11956;53.184;8.578;2022-08-19T09:45:32;1.88;;;0.80;;
23555;SDS011;11956;53.184;8.578;2022-08-19T09:48:33;2.38;;;0.70;;
23555;SDS011;11956;53.184;8.578;2022-08-19T09:51:34;1.23;;;0.77;;
23555;SDS011;11956;53.184;8.578;2022-08-19T09:54:35;1.48;;;0.80;;
23555;SDS011;11956;53.184;8.578;2022-08-19T09:57:37;0.82;;;0.65;;
23555;SDS011;11956;53.184;8.578;2022-08-19T10:00:38;1.10;;;0.60;;
23555;SDS011;11956;53.184;8.578;2022-08-19T10:03:39;2.28;;;0.90;;
23555;SDS011;11956;53.184;8.578;2022-08-19T10:06:40;1.13;;;0.70;;
23555;SDS011;11956;53.184;8.578;2022-08-19T10:09:41;2.08;;;0.68;;
23555;SDS011;11956;53.184;8.578;2022-08-19T10:12:42;1.02;;;0.60;;
23555;SDS011;11956;53.184;8.578;2022-08-19T10:15:47;2.40;;;0.80;;
23555;SDS011;11956;53.184;8.578;2022-08-19T10:18:50;1.27;;;0.60;;
23555;SDS011;11956;53.184;8.578;2022-08-19T10:21:53;3.35;;;0.65;;
23555;SDS011;11956;53.184;8.578;2022-08-19T10:24:54;3.08;;;0.90;;
23555;SDS011;11956;53.184;8.578;2022-08-19T10:27:56;0.73;;;0.50;;
23555;SDS011;11956;53.184;8.578;2022-08-19T10:30:57;0.80;;;0.40;;
23555;SDS011;11956;53.184;8.578;2022-08-19T10:33:59;0.98;;;0.50;;
23555;SDS011;11956;53.184;8.578;2022-08-19T10:37:00;1.55;;;0.40;;
23555;SDS011;11956;53.184;8.578;2022-08-19T10:40:05;0.63;;;0.50;;
23555;SDS011;11956;53.184;8.578;2022-08-19T10:43:08;1.25;;;0.40;;
23555;SDS011;11956;53.184;8.578;2022-08-19T10:46:11;1.00;;;0.60;;
23555;SDS011;11956;53.184;8.578;2022-08-19T10:49:15;1.13;;;0.50;;
23555;SDS011;11956;53.184;8.578;2022-08-19T10:52:16;0.40;;;0.40;;
23555;SDS011;11956;53.184;8.578;2022-08-19T10:55:35;1.70;;;1.00;;
23555;SDS011;11956;53.184;8.578;2022-08-19T10:58:55;2.95;;;1.17;;
23555;SDS011;11956;53.184;8.578;2022-08-19T11:02:01;2.90;;;1.02;;
23555;SDS011;11956;53.184;8.578;2022-08-19T11:05:05;3.53;;;0.98;;
23555;SDS011;11956;53.184;8.578;2022-08-19T11:08:08;1.10;;;0.60;;
23555;SDS011;11956;53.184;8.578;2022-08-19T11:11:12;1.00;;;0.70;;
23555;SDS011;11956;53.184;8.578;2022-08-19T11:14:14;1.38;;;0.60;;
23555;SDS011;11956;53.184;8.578;2022-08-19T11:17:20;1.02;;;0.60;;
23555;SDS011;11956;53.184;8.578;2022-08-19T11:20:23;2.78;;;0.50;;
23555;SDS011;11956;53.184;8.578;2022-08-19T11:23:24;1.95;;;0.60;;
23555;SDS011;11956;53.184;8.578;2022-08-19T11:26:25;0.88;;;0.60;;
23555;SDS011;11956;53.184;8.578;2022-08-19T11:29:27;0.73;;;0.40;;
23555;SDS011;11956;53.184;8.578;2022-08-19T11:32:29;2.00;;;0.63;;
23555;SDS011;11956;53.184;8.578;2022-08-19T11:35:30;1.20;;;0.55;;
23555;SDS011;11956;53.184;8.578;2022-08-19T11:38:33;1.85;;;1.67;;
23555;SDS011;11956;53.184;8.578;2022-08-19T11:41:35;2.25;;;0.50;;
23555;SDS011;11956;53.184;8.578;2022-08-19T11:44:36;1.63;;;0.70;;
23555;SDS011;11956;53.184;8.578;2022-08-19T11:47:37;1.88;;;0.68;;
23555;SDS011;11956;53.184;8.578;2022-08-19T11:50:38;2.22;;;0.60;;
23555;SDS011;11956;53.184;8.578;2022-08-19T11:53:41;1.58;;;0.50;;
23555;SDS011;11956;53.184;8.578;2022-08-19T11:56:42;0.82;;;0.50;;
23555;SDS011;11956;53.184;8.578;2022-08-19T11:59:48;2.08;;;0.50;;
23555;SDS011;11956;53.184;8.578;2022-08-19T12:02:52;2.78;;;0.73;;
23555;SDS011;11956;53.184;8.578;2022-08-19T12:05:54;5.55;;;1.23;;
23555;SDS011;11956;53.184;8.578;2022-08-19T12:08:56;5.72;;;2.10;;
23555;SDS011;11956;53.184;8.578;2022-08-19T12:12:05;2.70;;;1.40;;
23555;SDS011;11956;53.184;8.578;2022-08-19T12:15:06;3.72;;;1.27;;
23555;SDS011;11956;53.184;8.578;2022-08-19T12:18:08;0.87;;;0.80;;
23555;SDS011;11956;53.184;8.578;2022-08-19T12:21:09;1.55;;;0.70;;
23555;SDS011;11956;53.184;8.578;2022-08-19T12:24:11;1.65;;;0.60;;
23555;SDS011;11956;53.184;8.578;2022-08-19T12:27:12;1.85;;;0.52;;
23555;SDS011;11956;53.184;8.578;2022-08-19T12:30:13;1.92;;;0.60;;
23555;SDS011;11956;53.184;8.578;2022-08-19T12:33:14;2.55;;;0.50;;
23555;SDS011;11956;53.184;8.578;2022-08-19T12:36:15;0.77;;;0.50;;
23555;SDS011;11956;53.184;8.578;2022-08-19T12:39:17;2.03;;;0.43;;
23555;SDS011;11956;53.184;8.578;2022-08-19T12:42:18;0.85;;;0.50;;
23555;SDS011;11956;53.184;8.578;2022-08-19T12:45:22;1.70;;;0.60;;
23555;SDS011;11956;53.184;8.578;2022-08-19T12:48:23;1.33;;;0.68;;
23555;SDS011;11956;53.184;8.578;2022-08-19T12:51:24;1.75;;;0.88;;
23555;SDS011;11956;53.184;8.578;2022-08-19T12:54:27;0.73;;;0.50;;
23555;SDS011;11956;53.184;8.578;2022-08-19T12:57:30;1.70;;;0.77;;
23555;SDS011;11956;53.184;8.578;2022-08-19T13:00:34;2.08;;;1.40;;
23555;SDS011;11956;53.184;8.578;2022-08-19T13:03:35;1.42;;;0.57;;
23555;SDS011;11956;53.184;8.578;2022-08-19T13:06:36;1.90;;;0.55;;
23555;SDS011;11956;53.184;8.578;2022-08-19T13:09:37;1.75;;;0.65;;
23555;SDS011;11956;53.184;8.578;2022-08-19T13:12:41;0.52;;;0.50;;
23555;SDS011;11956;53.184;8.578;2022-08-19T13:15:43;1.63;;;0.73;;
23555;SDS011;11956;53.184;8.578;2022-08-19T13:18:45;1.95;;;0.60;;
23555;SDS011;11956;53.184;8.578;2022-08-19T13:21:49;0.90;;;0.63;;
23555;SDS011;11956;53.184;8.578;2022-08-19T13:24:51;2.97;;;0.70;;
23555;SDS011;11956;53.184;8.578;2022-08-19T13:27:52;3.75;;;0.82;;
23555;SDS011;11956;53.184;8.578;2022-08-19T13:30:55;1.03;;;0.70;;
23555;SDS011;11956;53.184;8.578;2022-08-19T13:34:14;3.15;;;0.80;;
23555;SDS011;11956;53.184;8.578;2022-08-19T13:37:16;0.93;;;0.63;;
23555;SDS011;11956;53.184;8.578;2022-08-19T13:40:38;1.05;;;0.70;;
23555;SDS011;11956;53.184;8.578;2022-08-19T13:43:40;2.33;;;0.75;;
23555;SDS011;11956;53.184;8.578;2022-08-19T13:46:41;3.17;;;0.90;;
23555;SDS011;11956;53.184;8.578;2022-08-19T13:52:45;0.98;;;0.70;;
23555;SDS011;11956;53.184;8.578;2022-08-19T13:55:47;2.72;;;2.00;;
23555;SDS011;11956;53.184;8.578;2022-08-19T13:58:50;3.25;;;0.73;;
23555;SDS011;11956;53.184;8.578;2022-08-19T14:01:51;0.50;;;0.50;;
23555;SDS011;11956;53.184;8.578;2022-08-19T14:04:53;1.42;;;0.80;;
23555;SDS011;11956;53.184;8.578;2022-08-19T14:07:54;1.65;;;0.73;;
23555;SDS011;11956;53.184;8.578;2022-08-19T14:10:56;1.80;;;0.70;;
23555;SDS011;11956;53.184;8.578;2022-08-19T14:13:57;0.65;;;0.60;;
23555;SDS011;11956;53.184;8.578;2022-08-19T14:16:58;2.35;;;0.90;;
23555;SDS011;11956;53.184;8.578;2022-08-19T14:19:59;1.65;;;0.80;;
23555;SDS011;11956;53.184;8.578;2022-08-19T14:23:08;1.92;;;0.80;;
23555;SDS011;11956;53.184;8.578;2022-08-19T14:26:11;1.25;;;0.82;;
23555;SDS011;11956;53.184;8.578;2022-08-19T14:29:15;1.55;;;0.80;;
23555;SDS011;11956;53.184;8.578;2022-08-19T14:32:17;1.50;;;0.75;;
23555;SDS011;11956;53.184;8.578;2022-08-19T14:35:18;1.30;;;1.00;;
23555;SDS011;11956;53.184;8.578;2022-08-19T14:38:21;1.45;;;0.80;;
23555;SDS011;11956;53.184;8.578;2022-08-19T14:41:22;1.98;;;1.00;;
23555;SDS011;11956;53.184;8.578;2022-08-19T14:44:24;1.13;;;0.90;;
23555;SDS011;11956;53.184;8.578;2022-08-19T14:47:25;1.02;;;0.80;;
23555;SDS011;11956;53.184;8.578;2022-08-19T14:50:27;1.48;;;1.00;;
23555;SDS011;11956;53.184;8.578;2022-08-19T14:53:28;1.63;;;1.30;;
23555;SDS011;11956;53.184;8.578;2022-08-19T14:56:29;1.38;;;1.10;;
23555;SDS011;11956;53.184;8.578;2022-08-19T14:59:30;2.45;;;0.90;;
23555;SDS011;11956;53.184;8.578;2022-08-19T15:02:31;2.90;;;1.10;;
23555;SDS011;11956;53.184;8.578;2022-08-19T15:05:32;2.38;;;1.20;;
23555;SDS011;11956;53.184;8.578;2022-08-19T15:08:34;1.52;;;0.93;;
23555;SDS011;11956;53.184;8.578;2022-08-19T15:11:38;2.45;;;1.00;;
23555;SDS011;11956;53.184;8.578;2022-08-19T15:14:39;0.80;;;0.80;;
23555;SDS011;11956;53.184;8.578;2022-08-19T15:17:42;2.15;;;0.88;;
23555;SDS011;11956;53.184;8.578;2022-08-19T15:20:50;1.45;;;1.20;;
23555;SDS011;11956;53.184;8.578;2022-08-19T15:23:51;2.05;;;1.02;;
23555;SDS011;11956;53.184;8.578;2022-08-19T15:26:53;1.38;;;1.00;;
23555;SDS011;11956;53.184;8.578;2022-08-19T15:32:57;1.95;;;0.95;;
23555;SDS011;11956;53.184;8.578;2022-08-19T15:35:58;1.65;;;1.50;;
23555;SDS011;11956;53.184;8.578;2022-08-19T15:38:59;2.15;;;1.10;;
23555;SDS011;11956;53.184;8.578;2022-08-19T15:42:01;1.20;;;1.02;;
23555;SDS011;11956;53.184;8.578;2022-08-19T15:45:04;1.88;;;1.20;;
23555;SDS011;11956;53.184;8.578;2022-08-19T15:48:06;1.30;;;1.20;;
23555;SDS011;11956;53.184;8.578;2022-08-19T15:51:07;1.35;;;1.00;;
23555;SDS011;11956;53.184;8.578;2022-08-19T15:54:09;1.00;;;0.98;;
23555;SDS011;11956;53.184;8.578;2022-08-19T15:57:14;2.60;;;1.15;;
23555;SDS011;11956;53.184;8.578;2022-08-19T16:00:21;0.85;;;0.82;;
23555;SDS011;11956;53.184;8.578;2022-08-19T16:03:40;2.20;;;1.10;;
23555;SDS011;11956;53.184;8.578;2022-08-19T16:07:00;1.40;;;1.10;;
23555;SDS011;11956;53.184;8.578;2022-08-19T16:10:03;2.70;;;1.07;;
23555;SDS011;11956;53.184;8.578;2022-08-19T16:16:06;2.90;;;1.20;;
23555;SDS011;11956;53.184;8.578;2022-08-19T16:19:08;2.97;;;1.47;;
23555;SDS011;11956;53.184;8.578;2022-08-19T16:22:10;3.83;;;1.20;;
23555;SDS011;11956;53.184;8.578;2022-08-19T16:25:11;2.45;;;1.10;;
23555;SDS011;11956;53.184;8.578;2022-08-19T16:28:13;1.27;;;1.10;;
23555;SDS011;11956;53.184;8.578;2022-08-19T16:31:14;1.77;;;1.20;;
23555;SDS011;11956;53.184;8.578;2022-08-19T16:34:15;1.05;;;0.93;;
23555;SDS011;11956;53.184;8.578;2022-08-19T16:37:17;1.20;;;1.10;;
23555;SDS011;11956;53.184;8.578;2022-08-19T16:40:18;2.33;;;1.30;;
23555;SDS011;11956;53.184;8.578;2022-08-19T16:43:20;1.25;;;1.00;;
23555;SDS011;11956;53.184;8.578;2022-08-19T16:46:22;1.10;;;0.90;;
23555;SDS011;11956;53.184;8.578;2022-08-19T16:49:23;1.98;;;1.35;;
23555;SDS011;11956;53.184;8.578;2022-08-19T16:52:24;1.40;;;1.30;;
23555;SDS011;11956;53.184;8.578;2022-08-19T16:55:26;2.35;;;1.77;;
23555;SDS011;11956;53.184;8.578;2022-08-19T16:58:27;1.90;;;1.40;;
23555;SDS011;11956;53.184;8.578;2022-08-19T17:01:33;3.72;;;1.20;;
23555;SDS011;11956;53.184;8.578;2022-08-19T17:04:33;2.13;;;1.40;;
23555;SDS011;11956;53.184;8.578;2022-08-19T17:07:34;1.98;;;1.10;;
23555;SDS011;11956;53.184;8.578;2022-08-19T17:10:35;1.52;;;1.20;;
23555;SDS011;11956;53.184;8.578;2022-08-19T17:13:39;1.95;;;1.10;;
23555;SDS011;11956;53.184;8.578;2022-08-19T17:16:40;2.10;;;1.20;;
23555;SDS011;11956;53.184;8.578;2022-08-19T17:19:40;3.58;;;1.48;;
23555;SDS011;11956;53.184;8.578;2022-08-19T17:22:42;1.55;;;1.30;;
23555;SDS011;11956;53.184;8.578;2022-08-19T17:25:43;1.92;;;1.70;;
23555;SDS011;11956;53.184;8.578;2022-08-19T17:28:45;1.40;;;1.30;;
23555;SDS011;11956;53.184;8.578;2022-08-19T17:31:49;1.65;;;1.23;;
23555;SDS011;11956;53.184;8.578;2022-08-19T17:34:50;1.63;;;1.15;;
23555;SDS011;11956;53.184;8.578;2022-08-19T17:37:53;1.30;;;1.20;;
23555;SDS011;11956;53.184;8.578;2022-08-19T17:40:54;3.22;;;1.55;;
23555;SDS011;11956;53.184;8.578;2022-08-19T17:44:03;1.15;;;1.08;;
23555;SDS011;11956;53.184;8.578;2022-08-19T17:47:06;1.93;;;1.40;;
23555;SDS011;11956;53.184;8.578;2022-08-19T17:50:08;1.52;;;1.35;;
23555;SDS011;11956;53.184;8.578;2022-08-19T17:53:12;1.33;;;1.23;;
23555;SDS011;11956;53.184;8.578;2022-08-19T17:56:12;1.90;;;1.52;;
23555;SDS011;11956;53.184;8.578;2022-08-19T17:59:13;1.92;;;1.40;;
23555;SDS011;11956;53.184;8.578;2022-08-19T18:02:15;1.50;;;1.40;;
23555;SDS011;11956;53.184;8.578;2022-08-19T18:05:18;1.80;;;1.40;;
23555;SDS011;11956;53.184;8.578;2022-08-19T18:08:24;1.63;;;1.30;;
23555;SDS011;11956;53.184;8.578;2022-08-19T18:11:25;1.55;;;1.40;;
23555;SDS011;11956;53.184;8.578;2022-08-19T18:14:29;1.70;;;1.60;;
23555;SDS011;11956;53.184;8.578;2022-08-19T18:17:33;1.73;;;1.50;;
23555;SDS011;11956;53.184;8.578;2022-08-19T18:20:35;4.22;;;1.60;;
23555;SDS011;11956;53.184;8.578;2022-08-19T18:23:37;1.70;;;1.60;;
23555;SDS011;11956;53.184;8.578;2022-08-19T18:26:38;2.90;;;1.92;;